Amber Beverly — VRHK5 — position and weather

sailwx.info

Track history (hours):
 
Tides and Currents Weather Stations Pressure Air Temp Water Temp Dewpoint Dewpoint Depression Visibility Wind Speed Wind Dir Waves Ship Positions

Amber Beverly

Last reported at 2018-Jan-20 03:03 UTC. Time now 2018-Feb-19 00:19 UTC.
Position N 36°25' E 026°59'.
Warning: this ship's position is 29 days out of date.

Length 190 m; draft 12.7 m.

Type: Cargo ship. MMSI: 477317100.

Date/timePositionNaut miles runAvg speedWind from/ knotsBaromVisibWave heightAir tempDewpointWater temp
2018-Jan-20 03:03N 36°25' E 026°59'513.2
2018-Jan-20 02:40N 36°29' E 026°55'212.2
2018-Jan-20 02:28N 36°30' E 026°53'612.8
2018-Jan-20 02:00N 36°36' E 026°49'612.8
2018-Jan-20 01:30N 36°42' E 026°46'713.0
2018-Jan-20 00:59N 36°48' E 026°42'712.9
2018-Jan-20 00:29N 36°54' E 026°39'613.0
2018-Jan-20 00:00N 36°59' E 026°36'713.2
2018-Jan-19 23:30N 37°04' E 026°30'713.0
2018-Jan-19 23:00N 37°08' E 026°24'612.8
2018-Jan-19 22:30N 37°13' E 026°18'612.5
2018-Jan-19 22:00N 37°17' E 026°12'611.9
2018-Jan-19 21:30N 37°21' E 026°07'611.7
2018-Jan-19 21:00N 37°25' E 026°01'611.9
2018-Jan-19 20:30N 37°29' E 025°55'611.5
2018-Jan-19 20:00N 37°34' E 025°53'612.0
2018-Jan-19 19:29N 37°40' E 025°53'611.4
2018-Jan-19 18:58N 37°46' E 025°52'511.2
2018-Jan-19 18:29N 37°52' E 025°51'611.4
2018-Jan-19 18:00N 37°57' E 025°50'229 8.9
2018-Jan-18 16:21N 40°56' E 028°55'3 6.3
2018-Jan-18 15:52N 40°59' E 028°57'0 0.0
2018-Jan-18 01:43N 40°59' E 028°57'0 0.0
2018-Jan-18 01:13N 40°59' E 028°57'0 0.0
2018-Jan-18 00:55N 40°59' E 028°57'0 0.1
2018-Jan-17 23:55N 40°59' E 028°57'  
2018-Jan-10 12:44N 46°35' E 031°01'2 8.0
2018-Jan-10 12:31N 46°34' E 031°02'3 5.2
2018-Jan-10 11:59N 46°33' E 031°06'0 0.1
2018-Jan-10 11:26N 46°33' E 031°06'0 0.0
2018-Jan-10 10:53N 46°33' E 031°06'0 0.0
2018-Jan-10 10:29N 46°33' E 031°06'0 0.0
2018-Jan-10 09:53N 46°33' E 031°06'0 0.0
2018-Jan-10 09:29N 46°33' E 031°06'0 0.0
2018-Jan-10 08:56N 46°33' E 031°06'0 0.0
2018-Jan-10 08:29N 46°33' E 031°06'0 0.0
2018-Jan-10 07:59N 46°33' E 031°06'0 0.0
2018-Jan-10 07:29N 46°33' E 031°06'0 0.0
2018-Jan-10 06:59N 46°33' E 031°06'0 0.0
2018-Jan-10 06:29N 46°33' E 031°06'0 0.0
2018-Jan-10 05:59N 46°33' E 031°06'0 0.0
2018-Jan-10 05:26N 46°33' E 031°06'0 0.0
2018-Jan-10 04:59N 46°33' E 031°06'0 0.1
2018-Jan-10 04:29N 46°33' E 031°06'0 0.1
2018-Jan-10 03:56N 46°33' E 031°06'0 0.1
2018-Jan-10 03:29N 46°33' E 031°06'  
Track history (hours):
 
Tides and Currents Weather Stations Pressure Air Temp Water Temp Dewpoint Dewpoint Depression Visibility Wind Speed Wind Dir Waves Ship Positions

Amber Beverly

Last reported at 2018-Jan-20 03:03 UTC. Time now 2018-Feb-19 00:19 UTC.
Position N 36°25' E 026°59'.
Warning: this ship's position is 29 days out of date.

Length 190 m; draft 12.7 m.

Type: Cargo ship. MMSI: 477317100.

Date/timePositionNaut miles runAvg speedWind from/ knotsBaromVisibWave heightAir tempDewpointWater temp
2018-Jan-20 03:03N 36°25' E 026°59'513.2
2018-Jan-20 02:40N 36°29' E 026°55'212.2
2018-Jan-20 02:28N 36°30' E 026°53'612.8
2018-Jan-20 02:00N 36°36' E 026°49'612.8
2018-Jan-20 01:30N 36°42' E 026°46'713.0
2018-Jan-20 00:59N 36°48' E 026°42'712.9
2018-Jan-20 00:29N 36°54' E 026°39'613.0
2018-Jan-20 00:00N 36°59' E 026°36'713.2
2018-Jan-19 23:30N 37°04' E 026°30'713.0
2018-Jan-19 23:00N 37°08' E 026°24'612.8
2018-Jan-19 22:30N 37°13' E 026°18'612.5
2018-Jan-19 22:00N 37°17' E 026°12'611.9
2018-Jan-19 21:30N 37°21' E 026°07'611.7
2018-Jan-19 21:00N 37°25' E 026°01'611.9
2018-Jan-19 20:30N 37°29' E 025°55'611.5
2018-Jan-19 20:00N 37°34' E 025°53'612.0
2018-Jan-19 19:29N 37°40' E 025°53'611.4
2018-Jan-19 18:58N 37°46' E 025°52'511.2
2018-Jan-19 18:29N 37°52' E 025°51'611.4
2018-Jan-19 18:00N 37°57' E 025°50'229 8.9
2018-Jan-18 16:21N 40°56' E 028°55'3 6.3
2018-Jan-18 15:52N 40°59' E 028°57'0 0.0
2018-Jan-18 01:43N 40°59' E 028°57'0 0.0
2018-Jan-18 01:13N 40°59' E 028°57'0 0.0
2018-Jan-18 00:55N 40°59' E 028°57'0 0.1
2018-Jan-17 23:55N 40°59' E 028°57'  
2018-Jan-10 12:44N 46°35' E 031°01'2 8.0
2018-Jan-10 12:31N 46°34' E 031°02'3 5.2
2018-Jan-10 11:59N 46°33' E 031°06'0 0.1
2018-Jan-10 11:26N 46°33' E 031°06'0 0.0
2018-Jan-10 10:53N 46°33' E 031°06'0 0.0
2018-Jan-10 10:29N 46°33' E 031°06'0 0.0
2018-Jan-10 09:53N 46°33' E 031°06'0 0.0
2018-Jan-10 09:29N 46°33' E 031°06'0 0.0
2018-Jan-10 08:56N 46°33' E 031°06'0 0.0
2018-Jan-10 08:29N 46°33' E 031°06'0 0.0
2018-Jan-10 07:59N 46°33' E 031°06'0 0.0
2018-Jan-10 07:29N 46°33' E 031°06'0 0.0
2018-Jan-10 06:59N 46°33' E 031°06'0 0.0
2018-Jan-10 06:29N 46°33' E 031°06'0 0.0
2018-Jan-10 05:59N 46°33' E 031°06'0 0.0
2018-Jan-10 05:26N 46°33' E 031°06'0 0.0
2018-Jan-10 04:59N 46°33' E 031°06'0 0.1
2018-Jan-10 04:29N 46°33' E 031°06'0 0.1
2018-Jan-10 03:56N 46°33' E 031°06'0 0.1
2018-Jan-10 03:29N 46°33' E 031°06'  

Dump ship's entire track history